Time;durP1;ratioP1;P1;durP2;ratioP2;P2;SDS_P1;SDS_P2;PMS_P1;PMS_P2;Temp;Humidity;BMP_temperature;BMP_pressure;BME280_temperature;BME280_humidity;BME280_pressure;Samples;Min_cycle;Max_cycle;Signal;HPM_P1;HPM_P2
2022/07/30 03:02:04;;;;;;;0.70;0.70;;;20.30;74.80;;;;;;5438853;23;20502;-77
2022/07/30 03:04:32;;;;;;;0.70;0.70;;;20.30;74.70;;;;;;4975745;28;20194;-77
2022/07/30 03:06:59;;;;;;;1.83;0.70;;;20.40;74.50;;;;;;4975541;28;20234;-77
2022/07/30 03:09:28;;;;;;;0.80;0.63;;;20.50;74.10;;;;;;4975642;28;20453;-77
2022/07/30 03:11:56;;;;;;;0.70;0.67;;;20.40;74.10;;;;;;4975554;28;20473;-77
2022/07/30 03:14:23;;;;;;;0.70;0.70;;;20.40;74.20;;;;;;4977314;28;20450;-77
2022/07/30 03:16:55;;;;;;;0.80;0.80;;;20.20;74.40;;;;;;4975338;28;20490;-77
2022/07/30 03:19:25;;;;;;;0.70;0.70;;;20.10;74.40;;;;;;4975598;28;20446;-77
2022/07/30 03:21:52;;;;;;;0.80;0.80;;;20.10;74.50;;;;;;4975090;28;20909;-77
2022/07/30 03:24:20;;;;;;;0.80;0.70;;;20.10;74.70;;;;;;4975700;28;20458;-77
2022/07/30 03:26:48;;;;;;;1.10;0.70;;;20.10;74.70;;;;;;4975350;28;20858;-77
2022/07/30 03:29:16;;;;;;;0.70;0.60;;;20.10;74.50;;;;;;4975541;28;20494;-77
2022/07/30 03:31:43;;;;;;;0.93;0.83;;;20.10;74.40;;;;;;4975103;28;20281;-77
2022/07/30 03:34:10;;;;;;;0.70;0.70;;;20.10;74.30;;;;;;4975728;28;20454;-76
2022/07/30 03:36:40;;;;;;;0.70;0.70;;;20.10;74.10;;;;;;4974487;28;20238;-77
2022/07/30 03:39:07;;;;;;;0.70;0.70;;;20.20;73.80;;;;;;4977658;28;20533;-76
2022/07/30 03:41:36;;;;;;;0.83;0.80;;;20.10;74.00;;;;;;4980951;28;20529;-76
2022/07/30 03:44:04;;;;;;;0.77;0.77;;;20.10;73.90;;;;;;4981007;28;20488;-76
2022/07/30 03:46:32;;;;;;;0.70;0.70;;;20.20;73.60;;;;;;4980999;28;20257;-77
2022/07/30 03:49:00;;;;;;;0.70;0.70;;;20.20;73.50;;;;;;4981210;28;20617;-76
2022/07/30 03:51:27;;;;;;;0.80;0.67;;;20.30;73.30;;;;;;4980903;28;20496;-76
2022/07/30 03:53:56;;;;;;;0.70;0.70;;;20.20;73.30;;;;;;4980643;28;20485;-76
2022/07/30 03:56:23;;;;;;;1.27;0.70;;;20.10;73.50;;;;;;4980698;28;20908;-76
2022/07/30 03:58:50;;;;;;;0.70;0.70;;;20.10;73.30;;;;;;4980843;28;20446;-76
2022/07/30 04:01:17;;;;;;;0.70;0.70;;;20.00;73.50;;;;;;4980549;28;20648;-77
2022/07/30 04:03:43;;;;;;;0.70;0.60;;;20.10;73.20;;;;;;4980860;28;20854;-76
2022/07/30 04:06:10;;;;;;;0.80;0.80;;;20.00;73.20;;;;;;4980771;28;20446;-76
2022/07/30 04:08:37;;;;;;;0.70;0.65;;;20.00;73.30;;;;;;4980597;28;20872;-76
2022/07/30 04:11:05;;;;;;;0.80;0.80;;;19.90;73.50;;;;;;4980772;28;20280;-76
2022/07/30 04:13:31;;;;;;;0.80;0.73;;;19.80;74.00;;;;;;4980783;28;20449;-76
2022/07/30 04:16:02;;;;;;;0.80;0.73;;;19.80;74.00;;;;;;4980738;28;20689;-76
2022/07/30 04:18:35;;;;;;;0.90;0.70;;;19.80;74.10;;;;;;4980885;28;20525;-77
2022/07/30 04:21:05;;;;;;;0.70;0.70;;;19.80;74.20;;;;;;4980782;28;20539;-77
2022/07/30 04:23:32;;;;;;;0.70;0.70;;;19.80;74.10;;;;;;4980468;28;20937;-77
2022/07/30 04:25:59;;;;;;;0.80;0.73;;;19.70;74.20;;;;;;4980753;28;20446;-76
2022/07/30 04:28:28;;;;;;;0.70;0.70;;;19.70;74.30;;;;;;4980734;28;20457;-76
2022/07/30 04:30:55;;;;;;;0.70;0.67;;;19.70;74.60;;;;;;4980652;28;20492;-76
2022/07/30 04:33:22;;;;;;;0.90;0.70;;;19.70;74.60;;;;;;4980694;28;20454;-77
2022/07/30 04:35:49;;;;;;;0.70;0.70;;;19.70;74.60;;;;;;4980582;28;20504;-76
2022/07/30 04:38:15;;;;;;;0.80;0.60;;;19.80;74.50;;;;;;4980399;28;20852;-77
2022/07/30 04:40:42;;;;;;;0.70;0.70;;;19.80;74.50;;;;;;4980619;28;20504;-77
2022/07/30 04:43:09;;;;;;;1.43;0.70;;;19.80;74.60;;;;;;4980610;28;20454;-76
2022/07/30 04:45:38;;;;;;;0.90;0.83;;;19.80;74.80;;;;;;4980668;28;20449;-77
2022/07/30 04:48:06;;;;;;;0.73;0.73;;;19.80;74.40;;;;;;4980268;28;20949;-76
2022/07/30 04:50:34;;;;;;;0.90;0.70;;;19.90;74.10;;;;;;4978159;28;20464;-76
2022/07/30 04:53:02;;;;;;;0.70;0.60;;;19.90;74.20;;;;;;4977807;28;21021;-76
2022/07/30 04:55:31;;;;;;;0.80;0.80;;;20.00;74.10;;;;;;4977628;28;20210;-76
2022/07/30 04:58:00;;;;;;;0.70;0.70;;;20.20;73.60;;;;;;4977593;28;20234;-77
2022/07/30 05:00:28;;;;;;;0.77;0.77;;;20.40;73.00;;;;;;4977440;28;20517;-77
2022/07/30 05:02:57;;;;;;;0.90;0.80;;;20.50;72.60;;;;;;4977244;28;20473;-76
2022/07/30 05:05:26;;;;;;;0.80;0.70;;;20.60;72.70;;;;;;4977657;28;20484;-77
2022/07/30 05:07:54;;;;;;;0.70;0.63;;;20.60;72.20;;;;;;4977581;28;20454;-76
2022/07/30 05:10:21;;;;;;;0.77;0.63;;;20.70;71.80;;;;;;4977452;28;20822;-76
2022/07/30 05:12:47;;;;;;;0.80;0.80;;;20.70;71.40;;;;;;4977448;28;20477;-76
2022/07/30 05:15:14;;;;;;;0.80;0.60;;;20.70;71.90;;;;;;4977434;28;20446;-77
2022/07/30 05:17:41;;;;;;;0.80;0.80;;;20.60;71.80;;;;;;4977556;28;20478;-77
2022/07/30 05:20:10;;;;;;;0.70;0.70;;;20.70;72.00;;;;;;4976982;28;20833;-76
2022/07/30 05:22:37;;;;;;;0.70;0.70;;;20.70;72.20;;;;;;4977196;28;20469;-76
2022/07/30 05:25:04;;;;;;;0.70;0.70;;;20.80;71.90;;;;;;4977193;28;20814;-77
2022/07/30 05:27:31;;;;;;;1.03;0.77;;;20.80;71.70;;;;;;4976993;28;20500;-77
2022/07/30 05:29:58;;;;;;;1.13;0.80;;;20.80;72.30;;;;;;4976930;28;20446;-77
2022/07/30 05:32:24;;;;;;;0.70;0.70;;;20.90;72.20;;;;;;4976922;28;20521;-77
2022/07/30 05:34:51;;;;;;;0.80;0.70;;;21.00;72.40;;;;;;4976850;28;20450;-76
2022/07/30 05:37:19;;;;;;;1.63;0.80;;;21.00;72.30;;;;;;4976801;28;20253;-78
2022/07/30 05:39:46;;;;;;;0.80;0.80;;;21.20;71.70;;;;;;4976738;28;20450;-78
2022/07/30 05:42:12;;;;;;;1.58;0.70;;;21.40;72.10;;;;;;4976510;28;20512;-78
2022/07/30 05:44:39;;;;;;;0.70;0.60;;;21.50;70.50;;;;;;4976532;28;20203;-77
2022/07/30 05:47:06;;;;;;;0.70;0.60;;;21.60;70.40;;;;;;4976599;28;20203;-78
2022/07/30 05:49:32;;;;;;;0.70;0.70;;;21.80;69.90;;;;;;4976588;28;20505;-77
2022/07/30 05:51:59;;;;;;;0.70;0.70;;;21.90;69.40;;;;;;4977050;28;20478;-77
2022/07/30 05:54:27;;;;;;;0.70;0.70;;;22.00;68.80;;;;;;4977159;28;20517;-77
2022/07/30 05:56:53;;;;;;;0.70;0.60;;;22.20;69.30;;;;;;4976134;28;20242;-78
2022/07/30 05:59:20;;;;;;;0.70;0.70;;;22.40;67.90;;;;;;4976370;28;20497;-78
2022/07/30 06:01:47;;;;;;;0.70;0.60;;;22.60;67.50;;;;;;4975880;28;20493;-78
2022/07/30 06:04:13;;;;;;;0.80;0.70;;;22.80;67.20;;;;;;4976255;28;20458;-78
2022/07/30 06:06:40;;;;;;;1.20;0.90;;;22.60;66.00;;;;;;4977489;28;20442;-77
2022/07/30 06:09:07;;;;;;;0.80;0.80;;;22.60;65.90;;;;;;4976715;28;20454;-76
2022/07/30 06:11:35;;;;;;;0.70;0.70;;;22.70;65.80;;;;;;4976525;28;20497;-77
2022/07/30 06:14:01;;;;;;;0.82;0.82;;;22.70;65.60;;;;;;4976400;28;20242;-77
2022/07/30 06:16:28;;;;;;;0.80;0.80;;;22.90;64.70;;;;;;4976519;28;20214;-77
2022/07/30 06:18:55;;;;;;;0.70;0.70;;;23.00;65.60;;;;;;4977243;28;20604;-76
2022/07/30 06:21:21;;;;;;;1.00;0.90;;;23.20;65.10;;;;;;4976556;28;20978;-77
2022/07/30 06:23:48;;;;;;;0.80;0.80;;;23.50;64.80;;;;;;4976527;28;20508;-77
2022/07/30 06:26:15;;;;;;;1.00;0.70;;;23.50;64.40;;;;;;4976702;28;20446;-77
2022/07/30 06:28:43;;;;;;;0.88;0.88;;;23.70;64.50;;;;;;4976790;28;20462;-77
2022/07/30 06:31:09;;;;;;;0.70;0.70;;;23.80;64.70;;;;;;4976526;28;20250;-77
2022/07/30 06:33:36;;;;;;;0.90;0.80;;;24.00;62.80;;;;;;4976093;28;20457;-77
2022/07/30 06:36:03;;;;;;;0.70;0.70;;;24.10;63.60;;;;;;4976402;28;20953;-77
2022/07/30 06:38:30;;;;;;;1.00;0.90;;;24.10;63.60;;;;;;4976424;28;20544;-77
2022/07/30 06:40:57;;;;;;;0.70;0.70;;;24.20;63.00;;;;;;4976033;28;20469;-77
2022/07/30 06:43:24;;;;;;;1.00;0.80;;;24.40;63.20;;;;;;4976609;28;20682;-76
2022/07/30 06:45:52;;;;;;;0.93;0.83;;;24.40;62.60;;;;;;4976514;28;20956;-77
2022/07/30 06:48:18;;;;;;;1.10;1.00;;;24.60;62.90;;;;;;4975586;28;20450;-76
2022/07/30 06:50:45;;;;;;;0.80;0.70;;;24.70;62.80;;;;;;4975463;28;20474;-77
2022/07/30 06:53:12;;;;;;;0.80;0.70;;;24.90;63.30;;;;;;4976469;28;20454;-76
2022/07/30 06:55:38;;;;;;;1.00;0.90;;;25.20;61.80;;;;;;4976359;28;20500;-76
2022/07/30 06:58:05;;;;;;;0.80;0.80;;;25.40;60.40;;;;;;4976212;28;20269;-76
2022/07/30 07:00:31;;;;;;;0.90;0.80;;;25.40;59.50;;;;;;4976844;28;20486;-76
2022/07/30 07:02:59;;;;;;;0.93;0.90;;;25.50;59.70;;;;;;4976179;28;20592;-77
2022/07/30 07:05:27;;;;;;;0.85;0.80;;;25.50;59.30;;;;;;4976348;28;20949;-76
2022/07/30 07:07:54;;;;;;;0.80;0.80;;;25.50;60.10;;;;;;4975767;28;20206;-77
2022/07/30 07:10:21;;;;;;;0.70;0.70;;;25.80;60.00;;;;;;4975404;28;20446;-77
2022/07/30 07:12:48;;;;;;;0.80;0.80;;;26.00;60.30;;;;;;4976124;28;20529;-77
2022/07/30 07:15:14;;;;;;;0.82;0.80;;;26.00;58.20;;;;;;4975649;28;20211;-77
2022/07/30 07:17:41;;;;;;;1.00;0.80;;;26.20;58.30;;;;;;4976399;28;20271;-77
2022/07/30 07:20:10;;;;;;;0.70;0.70;;;26.30;57.30;;;;;;4975672;28;20866;-77
2022/07/30 07:22:36;;;;;;;1.00;0.90;;;26.30;57.30;;;;;;4976606;28;20470;-77
2022/07/30 07:25:04;;;;;;;1.00;0.90;;;26.10;57.10;;;;;;4976476;28;20481;-77
2022/07/30 07:27:31;;;;;;;0.93;0.90;;;26.10;56.70;;;;;;4976110;28;20465;-76
2022/07/30 07:29:57;;;;;;;0.93;0.83;;;26.20;56.00;;;;;;4975143;28;20508;-76
2022/07/30 07:32:24;;;;;;;0.80;0.80;;;26.40;55.40;;;;;;4974912;28;20481;-76
2022/07/30 07:34:51;;;;;;;0.80;0.80;;;26.40;55.20;;;;;;4974676;28;20214;-76
2022/07/30 07:37:19;;;;;;;0.80;0.80;;;26.40;55.10;;;;;;4975832;28;20481;-76
2022/07/30 07:39:45;;;;;;;0.70;0.60;;;26.40;55.20;;;;;;4975763;28;20504;-77
2022/07/30 07:42:12;;;;;;;0.80;0.70;;;26.50;54.40;;;;;;4975714;28;20227;-77
2022/07/30 07:44:39;;;;;;;0.70;0.70;;;26.50;54.80;;;;;;4975760;28;20478;-77
2022/07/30 07:47:06;;;;;;;1.00;0.80;;;26.60;54.90;;;;;;4975479;28;20450;-77
2022/07/30 07:49:32;;;;;;;1.00;0.80;;;26.70;55.40;;;;;;4975514;28;20513;-77
2022/07/30 07:51:59;;;;;;;0.70;0.70;;;26.90;54.40;;;;;;4976073;28;20477;-80
2022/07/30 07:54:27;;;;;;;0.73;0.70;;;27.10;54.00;;;;;;4974584;28;20450;-76
2022/07/30 07:56:55;;;;;;;0.70;0.60;;;27.20;53.00;;;;;;4974299;28;20462;-76
2022/07/30 07:59:22;;;;;;;1.10;0.70;;;27.20;50.90;;;;;;4974112;28;20297;-76
2022/07/30 08:01:49;;;;;;;0.80;0.70;;;27.40;51.40;;;;;;4974038;28;20538;-74
2022/07/30 08:04:16;;;;;;;0.80;0.70;;;27.50;50.60;;;;;;4974352;28;20450;-73
2022/07/30 08:06:43;;;;;;;0.70;0.60;;;27.50;51.50;;;;;;4973982;28;20449;-73
2022/07/30 08:09:10;;;;;;;0.90;0.70;;;27.60;49.60;;;;;;4974263;28;20445;-74
2022/07/30 08:11:38;;;;;;;0.90;0.70;;;27.60;49.30;;;;;;4974173;28;20469;-74
2022/07/30 08:14:04;;;;;;;0.80;0.70;;;27.70;50.60;;;;;;4974238;28;20501;-74
2022/07/30 08:16:31;;;;;;;0.80;0.80;;;27.80;49.20;;;;;;4974208;28;20481;-74
2022/07/30 08:18:57;;;;;;;0.80;0.70;;;27.90;49.60;;;;;;4973843;28;20768;-74
2022/07/30 08:21:24;;;;;;;1.00;0.70;;;28.10;49.10;;;;;;4973907;28;20989;-74
2022/07/30 08:23:51;;;;;;;0.70;0.60;;;28.10;48.50;;;;;;4973908;28;20946;-74
2022/07/30 08:26:17;;;;;;;0.80;0.70;;;28.00;50.50;;;;;;4975589;28;20481;-74
2022/07/30 08:28:45;;;;;;;0.70;0.70;;;28.10;50.60;;;;;;4977757;28;20450;-73
2022/07/30 08:31:12;;;;;;;0.90;0.70;;;28.00;48.80;;;;;;4977657;28;20573;-74
2022/07/30 08:33:39;;;;;;;0.80;0.70;;;27.90;49.20;;;;;;4977753;28;20449;-74
2022/07/30 08:36:06;;;;;;;0.70;0.70;;;27.90;49.70;;;;;;4977677;28;20450;-73
2022/07/30 08:38:32;;;;;;;1.10;0.80;;;27.80;51.00;;;;;;4977574;28;20532;-74
2022/07/30 08:40:59;;;;;;;0.70;0.60;;;27.90;51.30;;;;;;4977539;28;20297;-74
2022/07/30 08:43:26;;;;;;;1.10;0.70;;;28.00;48.90;;;;;;4977551;28;20450;-73
2022/07/30 08:45:56;;;;;;;1.10;0.70;;;27.90;49.40;;;;;;4977199;28;20485;-73
2022/07/30 08:48:23;;;;;;;0.80;0.60;;;27.70;48.30;;;;;;4977409;28;20500;-73
2022/07/30 08:50:50;;;;;;;0.70;0.60;;;27.60;48.50;;;;;;4977402;28;20477;-73
2022/07/30 08:53:17;;;;;;;0.70;0.60;;;27.40;49.00;;;;;;4977331;28;20876;-73
2022/07/30 08:55:45;;;;;;;0.80;0.80;;;27.40;51.10;;;;;;4977359;28;20493;-75
2022/07/30 08:58:19;;;;;;;0.80;0.70;;;27.30;50.40;;;;;;4977229;28;20551;-75
2022/07/30 09:00:45;;;;;;;0.70;0.60;;;27.30;49.00;;;;;;4977018;28;20532;-75
2022/07/30 09:03:13;;;;;;;0.70;0.60;;;27.30;49.70;;;;;;4977228;28;20430;-75
2022/07/30 09:05:40;;;;;;;0.80;0.70;;;27.00;50.60;;;;;;4976855;28;20869;-75
2022/07/30 09:08:07;;;;;;;0.83;0.60;;;27.00;50.30;;;;;;4977083;28;20493;-75
2022/07/30 09:10:34;;;;;;;0.80;0.60;;;26.90;49.80;;;;;;4976698;28;20452;-75
2022/07/30 09:13:01;;;;;;;0.70;0.60;;;26.90;50.50;;;;;;4977020;28;20477;-75
2022/07/30 09:15:28;;;;;;;0.90;0.70;;;27.00;49.40;;;;;;4978411;28;20513;-75
2022/07/30 09:17:57;;;;;;;0.70;0.60;;;27.10;49.20;;;;;;4976871;28;20478;-75
2022/07/30 09:20:27;;;;;;;0.97;0.80;;;27.30;50.00;;;;;;4976822;28;20454;-75
2022/07/30 09:22:56;;;;;;;1.07;0.70;;;27.50;50.60;;;;;;4976922;28;20493;-76
2022/07/30 09:25:38;;;;;;;0.90;0.70;;;27.50;48.60;;;;;;4976913;28;20450;-75
2022/07/30 09:28:06;;;;;;;0.70;0.67;;;27.80;49.00;;;;;;4976367;28;20797;-76
2022/07/30 09:30:52;;;;;;;0.77;0.70;;;27.90;49.10;;;;;;4976588;28;20461;-74
2022/07/30 09:33:33;;;;;;;0.73;0.60;;;27.90;48.20;;;;;;4976844;28;20473;-75
2022/07/30 09:36:02;;;;;;;0.70;0.50;;;27.80;48.10;;;;;;4976519;28;20430;-75
2022/07/30 09:38:29;;;;;;;1.00;0.70;;;27.70;48.30;;;;;;4976431;28;20541;-74
2022/07/30 09:40:57;;;;;;;0.80;0.60;;;27.50;48.40;;;;;;4976457;28;20808;-74
2022/07/30 09:43:24;;;;;;;0.70;0.60;;;27.50;49.00;;;;;;4976526;28;20457;-74
2022/07/30 09:45:53;;;;;;;0.70;0.63;;;27.60;48.40;;;;;;4976432;28;20454;-74
2022/07/30 09:48:24;;;;;;;0.70;0.60;;;27.70;47.30;;;;;;4976480;28;20461;-75
2022/07/30 09:50:52;;;;;;;0.80;0.67;;;27.80;47.80;;;;;;4976116;28;20895;-74
2022/07/30 09:53:21;;;;;;;0.77;0.63;;;28.00;47.60;;;;;;4976370;28;20445;-74
2022/07/30 09:55:49;;;;;;;0.70;0.60;;;28.10;47.90;;;;;;4976237;28;20504;-74
2022/07/30 09:58:15;;;;;;;0.80;0.60;;;28.30;48.70;;;;;;4976081;28;20568;-74
2022/07/30 10:00:43;;;;;;;0.70;0.60;;;28.40;49.00;;;;;;4975941;28;20446;-75
2022/07/30 10:03:17;;;;;;;0.83;0.77;;;28.40;46.70;;;;;;4975898;28;20968;-77
2022/07/30 10:05:52;;;;;;;1.00;0.70;;;28.40;46.60;;;;;;4976056;28;20799;-77
2022/07/30 10:08:21;;;;;;;0.70;0.60;;;28.50;47.70;;;;;;4975743;28;21015;-80
2022/07/30 10:10:48;;;;;;;0.80;0.70;;;28.20;46.30;;;;;;4979600;28;20497;-84
2022/07/30 10:13:16;;;;;;;0.70;0.60;;;28.10;46.30;;;;;;4978912;28;20480;-77
2022/07/30 10:15:44;;;;;;;0.70;0.60;;;28.10;46.00;;;;;;4976055;28;20504;-76
2022/07/30 10:18:12;;;;;;;0.70;0.50;;;28.00;45.90;;;;;;4975770;28;20481;-77
2022/07/30 10:20:39;;;;;;;1.03;0.60;;;28.00;46.60;;;;;;4975736;28;20522;-77
2022/07/30 10:23:07;;;;;;;0.73;0.63;;;27.90;46.50;;;;;;4976189;28;20458;-76
2022/07/30 10:25:36;;;;;;;0.70;0.60;;;27.70;47.10;;;;;;4977267;28;20454;-77
2022/07/30 10:28:03;;;;;;;0.70;0.67;;;27.80;47.50;;;;;;4975955;28;20449;-79
2022/07/30 10:30:30;;;;;;;0.80;0.67;;;27.90;47.30;;;;;;4975749;28;20876;-79
2022/07/30 10:32:58;;;;;;;0.70;0.70;;;28.00;46.90;;;;;;4975872;28;20461;-76
2022/07/30 10:35:25;;;;;;;0.70;0.60;;;28.10;49.20;;;;;;4975833;28;20534;-76
2022/07/30 10:37:53;;;;;;;0.70;0.60;;;28.50;46.20;;;;;;4975810;28;20897;-77
2022/07/30 10:40:26;;;;;;;0.70;0.63;;;28.60;47.10;;;;;;4976070;28;20870;-77
2022/07/30 10:43:25;;;;;;;0.73;0.60;;;28.60;46.10;;;;;;4975539;28;20438;-74
2022/07/30 10:46:01;;;;;;;0.70;0.60;;;28.60;46.60;;;;;;4976002;28;20458;-77
2022/07/30 10:48:32;;;;;;;1.63;0.80;;;28.50;46.30;;;;;;4975653;28;20430;-74
2022/07/30 10:50:59;;;;;;;1.00;0.60;;;28.60;46.90;;;;;;4975623;28;20470;-73
2022/07/30 10:53:33;;;;;;;0.80;0.60;;;28.80;45.80;;;;;;4975403;28;20454;-76
2022/07/30 10:56:17;;;;;;;0.70;0.50;;;29.00;45.70;;;;;;4976478;28;20289;-77
2022/07/30 10:59:05;;;;;;;0.70;0.70;;;29.10;44.70;;;;;;4975981;28;20258;-80
2022/07/30 11:02:07;;;;;;;0.80;0.60;;;29.30;43.90;;;;;;4975209;28;20238;-79
2022/07/30 11:04:34;;;;;;;0.80;0.63;;;29.40;46.20;;;;;;4970020;28;20461;-77
2022/07/30 11:07:30;;;;;;;0.80;0.60;;;29.50;44.60;;;;;;4975317;28;20501;-79
2022/07/30 11:09:59;;;;;;;0.80;0.67;;;29.30;45.00;;;;;;4973690;28;20454;-79
2022/07/30 11:12:55;;;;;;;0.70;0.60;;;29.20;45.70;;;;;;4975495;28;20470;-79
2022/07/30 11:15:23;;;;;;;0.70;0.60;;;29.10;45.30;;;;;;4975117;28;20457;-79
2022/07/30 11:18:04;;;;;;;0.70;0.60;;;29.00;44.20;;;;;;4975375;28;20453;-79
2022/07/30 11:20:32;;;;;;;1.73;0.67;;;28.70;45.30;;;;;;4975330;28;20630;-79
2022/07/30 11:23:10;;;;;;;0.73;0.60;;;28.60;46.00;;;;;;4975330;28;20490;-79
2022/07/30 11:25:42;;;;;;;1.00;0.70;;;28.80;45.60;;;;;;4975214;28;20209;-79
2022/07/30 11:28:36;;;;;;;0.70;0.60;;;28.70;45.80;;;;;;4974642;28;20965;-79
2022/07/30 11:31:24;;;;;;;0.87;0.60;;;28.70;45.50;;;;;;4974823;28;20469;-78
2022/07/30 11:33:51;;;;;;;0.70;0.70;;;28.90;44.00;;;;;;4974641;28;20910;-78
2022/07/30 11:36:18;;;;;;;0.70;0.63;;;29.00;44.60;;;;;;4974633;28;20461;-78
2022/07/30 11:38:58;;;;;;;0.87;0.60;;;29.20;44.10;;;;;;4975039;28;20533;-78
2022/07/30 11:41:26;;;;;;;0.70;0.50;;;29.50;43.60;;;;;;4975001;28;20476;-79
2022/07/30 11:44:27;;;;;;;0.70;0.70;;;29.80;44.50;;;;;;4974941;28;20457;-79
2022/07/30 11:46:56;;;;;;;0.90;0.60;;;29.80;43.50;;;;;;4974663;28;20949;-79
2022/07/30 11:49:22;;;;;;;0.70;0.60;;;29.90;42.90;;;;;;4974551;28;20446;-79
2022/07/30 11:51:49;;;;;;;1.00;0.80;;;29.80;43.10;;;;;;4974866;28;20879;-79
2022/07/30 11:54:17;;;;;;;0.70;0.60;;;29.80;44.10;;;;;;4974441;28;20485;-77
2022/07/30 11:56:51;;;;;;;0.70;0.60;;;29.90;43.30;;;;;;4974464;28;20450;-77
2022/07/30 11:59:18;;;;;;;0.80;0.77;;;30.10;42.90;;;;;;4974405;28;20706;-78
2022/07/30 12:01:49;;;;;;;0.80;0.80;;;30.30;44.50;;;;;;4977963;28;20493;-76
2022/07/30 12:04:17;;;;;;;0.70;0.60;;;30.70;41.70;;;;;;4978407;28;20438;-78
2022/07/30 12:06:45;;;;;;;0.70;0.60;;;30.90;41.70;;;;;;4979152;28;20446;-79
2022/07/30 12:09:12;;;;;;;0.80;0.70;;;31.10;42.20;;;;;;4978006;28;20682;-75
2022/07/30 12:11:39;;;;;;;0.67;0.60;;;31.30;41.00;;;;;;4979287;28;20528;-77
2022/07/30 12:14:05;;;;;;;0.70;0.60;;;31.50;40.30;;;;;;4978209;28;20496;-69
2022/07/30 12:16:33;;;;;;;0.90;0.60;;;31.50;41.00;;;;;;4977747;28;20839;-76
2022/07/30 12:19:04;;;;;;;0.70;0.50;;;31.50;39.60;;;;;;4977869;28;20482;-72
2022/07/30 12:21:33;;;;;;;0.70;0.50;;;31.00;41.10;;;;;;4978109;28;20477;-75
2022/07/30 17:51:26;;;;;;;0.90;0.60;;;26.00;48.50;;;;;;5092064;27;20560;-74
2022/07/30 17:53:52;;;;;;;0.70;0.60;;;26.10;48.70;;;;;;5091034;28;20582;-73
2022/07/30 17:56:19;;;;;;;0.70;0.60;;;26.40;47.80;;;;;;5090589;28;20985;-72
2022/07/30 17:58:46;;;;;;;0.90;0.70;;;26.80;46.90;;;;;;5090600;28;21009;-74
2022/07/30 18:01:15;;;;;;;0.70;0.70;;;27.10;45.70;;;;;;5092258;28;20464;-72
2022/07/30 18:03:42;;;;;;;0.70;0.50;;;27.40;45.40;;;;;;5090788;28;20495;-74
2022/07/30 18:06:09;;;;;;;0.70;0.50;;;27.50;44.50;;;;;;5090739;28;20514;-74
2022/07/30 18:08:37;;;;;;;0.90;0.60;;;27.60;45.00;;;;;;5090731;28;20453;-74
2022/07/30 18:11:05;;;;;;;0.70;0.60;;;27.70;45.30;;;;;;5090636;28;20540;-75
2022/07/30 18:13:33;;;;;;;0.70;0.60;;;27.90;44.60;;;;;;5090587;28;20453;-75
2022/07/30 18:16:00;;;;;;;0.70;0.60;;;28.00;44.50;;;;;;5090546;28;20445;-74
2022/07/30 18:18:26;;;;;;;0.70;0.60;;;28.10;44.90;;;;;;5090744;28;20453;-75
2022/07/30 18:20:53;;;;;;;0.70;0.60;;;28.20;44.90;;;;;;5090302;28;20461;-75
2022/07/30 18:23:20;;;;;;;0.70;0.60;;;28.30;44.40;;;;;;5090272;28;20444;-75
2022/07/30 18:25:48;;;;;;;0.90;0.53;;;28.30;44.10;;;;;;5089903;28;20931;-75
2022/07/30 18:28:15;;;;;;;0.70;0.60;;;28.40;44.20;;;;;;5090609;28;20502;-77
2022/07/30 18:30:42;;;;;;;0.70;0.60;;;28.40;43.70;;;;;;5090162;28;20477;-77
2022/07/30 18:33:09;;;;;;;0.70;0.60;;;28.40;44.30;;;;;;5090955;28;20506;-76
2022/07/30 18:35:36;;;;;;;0.70;0.60;;;28.40;44.30;;;;;;5090188;28;20457;-76
2022/07/30 18:38:03;;;;;;;0.73;0.60;;;28.30;44.60;;;;;;5090002;28;20441;-75
2022/07/30 18:40:31;;;;;;;0.70;0.57;;;28.30;45.50;;;;;;5090037;28;20437;-75
2022/07/30 18:42:59;;;;;;;1.10;0.60;;;28.30;45.70;;;;;;5089958;28;20471;-75
2022/07/30 18:45:27;;;;;;;0.70;0.60;;;28.30;46.40;;;;;;5089955;28;20565;-74
2022/07/30 18:47:55;;;;;;;0.70;0.60;;;28.30;46.70;;;;;;5089928;28;20449;-75
2022/07/30 18:50:22;;;;;;;0.80;0.60;;;28.20;46.20;;;;;;5089547;28;20499;-75
2022/07/30 18:52:49;;;;;;;1.00;0.70;;;28.10;46.70;;;;;;5089676;28;20474;-74
2022/07/30 18:55:17;;;;;;;0.70;0.60;;;28.10;46.30;;;;;;5089373;28;20940;-76
2022/07/30 18:57:44;;;;;;;0.70;0.60;;;28.00;47.30;;;;;;5089464;28;20966;-76
2022/07/30 19:00:14;;;;;;;0.70;0.60;;;28.00;47.20;;;;;;5089689;28;20849;-77
2022/07/30 19:02:41;;;;;;;0.70;0.50;;;28.00;47.40;;;;;;5076422;28;20468;-76
2022/07/30 19:05:09;;;;;;;0.70;0.60;;;27.90;47.50;;;;;;5076510;28;20441;-77
2022/07/30 19:07:35;;;;;;;0.80;0.60;;;27.90;47.80;;;;;;5076317;28;20449;-77
2022/07/30 19:10:03;;;;;;;0.70;0.60;;;27.80;47.50;;;;;;5076546;28;20894;-77
2022/07/30 19:12:57;;;;;;;0.90;0.67;;;27.80;48.20;;;;;;5076104;28;20462;-76
2022/07/30 19:15:27;;;;;;;0.70;0.60;;;27.70;48.70;;;;;;5075901;28;20499;-75
2022/07/30 19:17:53;;;;;;;0.70;0.50;;;27.60;48.40;;;;;;5075889;28;20445;-75
2022/07/30 19:20:22;;;;;;;0.70;0.60;;;27.60;48.00;;;;;;5075397;28;20438;-75
2022/07/30 19:22:48;;;;;;;1.13;0.60;;;27.50;48.60;;;;;;5075552;28;20515;-75
2022/07/30 19:25:16;;;;;;;0.70;0.60;;;27.40;48.10;;;;;;5075765;28;20505;-75
2022/07/30 19:27:43;;;;;;;0.70;0.57;;;27.30;48.50;;;;;;5075752;28;20446;-74
2022/07/30 19:30:11;;;;;;;0.70;0.60;;;27.30;48.90;;;;;;5075615;28;20531;-75
2022/07/30 19:32:39;;;;;;;0.70;0.60;;;27.20;48.80;;;;;;5076038;28;20523;-75
2022/07/30 19:35:07;;;;;;;0.70;0.60;;;27.10;48.70;;;;;;5076180;28;20502;-75
2022/07/30 19:37:35;;;;;;;0.70;0.60;;;27.10;49.10;;;;;;5075887;28;20445;-75
2022/07/30 19:40:02;;;;;;;0.70;0.60;;;27.00;49.30;;;;;;5075906;28;20525;-76
2022/07/30 19:42:29;;;;;;;0.70;0.63;;;26.90;49.60;;;;;;5076628;28;20470;-80
2022/07/30 19:44:56;;;;;;;0.90;0.60;;;26.90;49.40;;;;;;5075982;28;20860;-80
2022/07/30 19:47:24;;;;;;;0.70;0.60;;;26.70;49.00;;;;;;5075835;28;20860;-80
2022/07/30 19:49:53;;;;;;;0.70;0.53;;;26.70;49.40;;;;;;5076790;28;20486;-80
2022/07/30 19:52:20;;;;;;;0.70;0.67;;;26.60;49.30;;;;;;5076963;28;20465;-80
2022/07/30 19:54:47;;;;;;;0.70;0.50;;;26.50;49.50;;;;;;5075956;28;20445;-80
2022/07/30 19:57:13;;;;;;;0.70;0.50;;;26.40;49.90;;;;;;5075558;28;20446;-80
2022/07/30 19:59:40;;;;;;;0.70;0.50;;;26.40;50.30;;;;;;5075149;28;20982;-80
2022/07/30 20:02:07;;;;;;;0.70;0.60;;;26.30;50.40;;;;;;5075034;28;20980;-80
2022/07/30 20:04:33;;;;;;;0.70;0.60;;;26.20;50.50;;;;;;5075051;28;20971;-80
2022/07/30 20:07:01;;;;;;;0.70;0.60;;;26.20;50.70;;;;;;5075265;28;20892;-80
2022/07/30 20:09:28;;;;;;;0.70;0.60;;;26.10;50.60;;;;;;5074802;28;20446;-80
2022/07/30 20:11:55;;;;;;;0.70;0.60;;;26.00;50.30;;;;;;5074885;28;20287;-80
2022/07/30 20:14:21;;;;;;;0.70;0.60;;;26.10;50.50;;;;;;5074095;28;20862;-80
2022/07/30 20:16:48;;;;;;;0.90;0.70;;;26.00;50.60;;;;;;5075130;28;20537;-80
2022/07/30 20:19:15;;;;;;;0.70;0.60;;;26.00;50.90;;;;;;5074653;28;20445;-77
2022/07/30 20:21:42;;;;;;;1.33;0.60;;;25.90;51.00;;;;;;5074552;28;20465;-77
2022/07/30 20:24:10;;;;;;;0.70;0.70;;;25.90;51.10;;;;;;5074529;28;20442;-77
2022/07/30 20:26:37;;;;;;;0.70;0.60;;;25.80;51.00;;;;;;5074416;28;20476;-78
2022/07/30 20:29:04;;;;;;;0.70;0.60;;;25.80;51.20;;;;;;5074364;28;20445;-77
2022/07/30 20:31:30;;;;;;;0.80;0.70;;;25.70;51.40;;;;;;5074221;28;20543;-77
2022/07/30 20:33:57;;;;;;;0.70;0.60;;;25.70;51.50;;;;;;5074276;28;20453;-77
2022/07/30 20:36:24;;;;;;;0.70;0.60;;;25.60;51.40;;;;;;5074044;28;20937;-78
2022/07/30 20:38:50;;;;;;;0.70;0.50;;;25.60;51.60;;;;;;5074284;28;20445;-77
2022/07/30 20:41:18;;;;;;;0.70;0.70;;;25.60;51.90;;;;;;5074220;28;20462;-76
2022/07/30 20:43:45;;;;;;;0.70;0.60;;;25.50;51.80;;;;;;5074351;28;20491;-76
2022/07/30 20:46:12;;;;;;;1.07;0.60;;;25.50;52.10;;;;;;5074459;28;20442;-76
2022/07/30 20:48:40;;;;;;;0.70;0.60;;;25.50;52.30;;;;;;5074205;28;20456;-76
2022/07/30 20:51:08;;;;;;;0.80;0.60;;;25.40;52.30;;;;;;5073428;28;20931;-78
2022/07/30 20:53:35;;;;;;;0.70;0.60;;;25.40;52.60;;;;;;5074041;28;20468;-77
2022/07/30 20:56:01;;;;;;;0.70;0.60;;;25.30;52.60;;;;;;5073650;28;20992;-77
2022/07/30 20:58:29;;;;;;;0.70;0.60;;;25.30;52.80;;;;;;5073990;28;20449;-78
